Time;durP1;ratioP1;P1;durP2;ratioP2;P2;SDS_P1;SDS_P2;PMS_P1;PMS_P2;Temp;Humidity;BMP_temperature;BMP_pressure;BME280_temperature;BME280_humidity;BME280_pressure;Samples;Min_cycle;Max_cycle;Signal;HPM_P1;HPM_P2
2023/04/29 09:00:23;;;;;;;30.95;17.45;;;;;;;11.51;100.00;101780.38;5904032;24;20020;31
2023/04/29 09:02:50;;;;;;;31.83;17.95;;;;;;;11.60;97.81;101780.75;4814558;29;20053;-78
2023/04/29 09:05:16;;;;;;;28.33;16.45;;;;;;;11.63;99.10;101783.25;4824497;29;20409;-78
2023/04/29 09:07:43;;;;;;;29.20;17.23;;;;;;;11.60;97.49;101778.94;4838539;29;20038;-77
2023/04/29 09:10:09;;;;;;;29.35;16.52;;;;;;;11.64;100.00;101784.97;4838524;29;20482;-77
2023/04/29 09:12:35;;;;;;;30.52;16.20;;;;;;;11.62;95.59;101787.75;4838306;29;20042;-78
2023/04/29 09:15:00;;;;;;;27.85;15.55;;;;;;;11.64;94.16;101791.25;4824319;29;20049;-78
2023/04/29 09:17:46;;;;;;;28.23;14.82;;;;;;;11.78;100.00;101779.56;4838335;29;20030;-78
2023/04/29 09:20:25;;;;;;;26.73;15.65;;;;;;;11.92;98.73;101789.50;4824394;29;20042;-78
2023/04/29 09:23:00;;;;;;;24.63;13.27;;;;;;;11.97;94.83;101786.53;4816786;29;20041;-77
2023/04/29 09:25:26;;;;;;;26.25;14.45;;;;;;;11.98;91.43;101786.44;4838361;29;20041;-78
2023/04/29 09:27:51;;;;;;;27.75;15.38;;;;;;;12.04;94.85;101786.03;4823937;29;20039;-78
2023/04/29 09:30:18;;;;;;;26.55;14.90;;;;;;;12.11;94.97;101781.13;4838080;29;20048;-79
2023/04/29 09:32:44;;;;;;;26.45;13.70;;;;;;;12.12;94.86;101782.81;4837798;29;20038;-78
2023/04/29 09:35:27;;;;;;;25.48;14.32;;;;;;;12.14;96.10;101785.41;4837245;29;20125;-78
2023/04/29 09:38:08;;;;;;;26.30;15.23;;;;;;;12.09;93.17;101784.88;4837939;29;20045;-78
2023/04/29 09:40:33;;;;;;;24.88;12.85;;;;;;;12.04;90.91;101798.66;4837989;29;20047;-79
2023/04/29 09:43:00;;;;;;;26.83;13.27;;;;;;;12.01;92.64;101798.84;4837743;29;20042;-78
2023/04/29 09:45:33;;;;;;;29.25;13.65;;;;;;;12.02;94.76;101795.16;4824007;29;20031;-78
2023/04/29 09:48:03;;;;;;;27.33;14.27;;;;;;;12.05;93.73;101800.38;4837466;29;20045;-80
2023/04/29 09:50:29;;;;;;;25.20;12.80;;;;;;;12.03;93.00;101803.16;4837924;29;20034;-80
2023/04/29 09:52:54;;;;;;;25.23;13.70;;;;;;;12.01;92.34;101807.78;4837757;29;20041;-80
2023/04/29 09:55:20;;;;;;;27.48;13.23;;;;;;;11.99;91.48;101806.13;4837801;29;20056;-80
2023/04/29 09:57:46;;;;;;;25.15;13.18;;;;;;;12.07;92.56;101809.22;4837738;29;20030;-80
2023/04/29 10:00:13;;;;;;;25.88;13.32;;;;;;;12.10;89.94;101811.72;4837650;29;20469;-81
2023/04/29 10:02:42;;;;;;;26.30;13.93;;;;;;;12.20;90.08;101812.84;4839528;29;20049;-81
2023/04/29 10:05:09;;;;;;;23.42;12.63;;;;;;;12.29;89.27;101818.63;4840587;29;20466;-80
2023/04/29 10:07:38;;;;;;;23.95;11.52;;;;;;;12.35;86.94;101827.16;4834382;29;20034;-80
2023/04/29 10:10:05;;;;;;;21.45;10.75;;;;;;;12.39;86.76;101819.75;4841937;29;20026;-80
2023/04/29 10:12:34;;;;;;;24.60;12.15;;;;;;;12.44;89.85;101820.28;4840406;29;20037;-80
2023/04/29 10:15:32;;;;;;;26.50;12.88;;;;;;;12.40;88.96;101822.34;4840393;29;20030;-80
2023/04/29 10:18:08;;;;;;;24.13;11.98;;;;;;;12.36;89.22;101819.94;4835387;29;20049;-80
2023/04/29 10:20:36;;;;;;;22.70;11.52;;;;;;;12.34;88.74;101829.94;4840325;29;20512;-80
2023/04/29 10:23:02;;;;;;;24.27;12.70;;;;;;;12.37;90.99;101825.25;4840193;29;20044;-80
2023/04/29 10:25:28;;;;;;;23.73;12.07;;;;;;;12.36;90.23;101823.50;4840276;29;20030;-81
2023/04/29 10:27:55;;;;;;;24.70;12.02;;;;;;;12.39;88.43;101825.13;4832459;29;20046;-80
2023/04/29 10:30:21;;;;;;;24.42;13.00;;;;;;;12.40;87.85;101833.13;4841582;29;20037;-80
2023/04/29 10:32:48;;;;;;;25.15;10.30;;;;;;;12.37;85.59;101825.25;4839898;29;20065;-81
2023/04/29 10:35:17;;;;;;;22.73;10.40;;;;;;;12.41;86.13;101833.97;4840215;29;20405;-80
2023/04/29 10:37:44;;;;;;;;;;;;;;;12.51;89.22;101832.41;4841780;29;20030;-80
2023/04/29 10:40:14;;;;;;;22.80;10.88;;;;;;;12.56;87.09;101838.38;4841175;29;19923;-80
2023/04/29 10:42:51;;;;;;;26.25;11.20;;;;;;;12.70;84.88;101831.19;4841184;29;20030;-80
2023/04/29 10:45:17;;;;;;;23.15;10.35;;;;;;;12.74;82.71;101827.34;4834379;29;20052;-80
2023/04/29 10:48:05;;;;;;;24.70;11.48;;;;;;;12.82;86.59;101824.13;4840988;29;20033;-80
2023/04/29 10:50:38;;;;;;;24.70;11.70;;;;;;;12.84;85.28;101825.75;4835148;29;20499;-80
2023/04/29 10:53:04;;;;;;;21.80;10.95;;;;;;;12.92;88.07;101828.78;4839913;29;20025;-81
2023/04/29 10:55:30;;;;;;;24.65;11.63;;;;;;;12.94;84.21;101829.56;4839681;29;20034;-81
2023/04/29 10:57:56;;;;;;;23.02;11.25;;;;;;;12.98;84.23;101837.44;4840931;29;20038;-81
2023/04/29 11:00:26;;;;;;;22.98;9.93;;;;;;;13.04;83.94;101837.00;4840888;29;20042;-81
2023/04/29 11:02:53;;;;;;;25.13;10.25;;;;;;;13.11;82.05;101838.34;4839351;29;20061;-80
2023/04/29 11:05:32;;;;;;;20.63;9.27;;;;;;;13.19;85.47;101829.69;4840953;29;20038;-80
2023/04/29 11:08:23;;;;;;;22.50;10.75;;;;;;;13.28;84.05;101840.75;4839549;29;20061;-80
2023/04/29 11:10:52;;;;;;;22.90;9.95;;;;;;;13.36;82.45;101842.06;4833647;29;20038;-80
2023/04/29 11:13:25;;;;;;;23.33;10.52;;;;;;;13.41;79.41;101840.78;4840468;29;20034;-81
2023/04/29 11:15:51;;;;;;;23.38;11.35;;;;;;;13.44;80.07;101845.09;4840813;29;20034;-81
2023/04/29 11:18:17;;;;;;;23.77;10.68;;;;;;;13.45;80.11;101844.97;4839350;29;20032;-81
2023/04/29 11:21:04;;;;;;;27.33;11.10;;;;;;;13.51;83.22;101842.84;4839229;29;20390;-81
2023/04/29 11:23:32;;;;;;;24.23;10.65;;;;;;;13.52;80.60;101842.72;4839269;29;20034;-80
2023/04/29 11:25:57;;;;;;;21.67;10.07;;;;;;;13.54;81.72;101843.47;4840459;29;20038;-81
2023/04/29 11:28:23;;;;;;;22.58;11.15;;;;;;;13.52;78.05;101841.88;4839086;29;20030;-81
2023/04/29 11:30:52;;;;;;;22.50;11.45;;;;;;;13.45;79.38;101841.44;4839234;29;20040;-81
2023/04/29 11:33:19;;;;;;;22.83;9.63;;;;;;;13.40;78.09;101839.06;4840319;29;20029;-81
2023/04/29 11:35:45;;;;;;;20.60;10.05;;;;;;;13.36;80.40;101844.78;4839066;29;20320;-80
2023/04/29 11:38:11;;;;;;;21.08;9.88;;;;;;;13.33;77.24;101847.66;4840573;29;20028;-80
2023/04/29 11:40:49;;;;;;;22.77;10.50;;;;;;;13.35;80.06;101849.28;4840422;29;20424;-81
2023/04/29 11:43:19;;;;;;;23.08;9.88;;;;;;;13.39;79.48;101849.97;4832338;29;20034;-80
2023/04/29 11:45:45;;;;;;;24.10;10.20;;;;;;;13.44;79.32;101847.78;4839029;29;20033;-81
2023/04/29 11:48:25;;;;;;;22.30;10.27;;;;;;;13.56;79.73;101848.81;4838744;29;20034;-80
2023/04/29 11:50:53;;;;;;;21.10;9.20;;;;;;;13.64;79.36;101841.84;4840244;29;20126;-81
2023/04/29 11:53:20;;;;;;;21.58;9.48;;;;;;;13.76;77.66;101848.25;4833051;29;20022;-81
2023/04/29 11:55:46;;;;;;;22.92;9.77;;;;;;;13.84;77.69;101842.31;4839043;29;20128;-80
2023/04/29 11:58:13;;;;;;;20.80;9.68;;;;;;;13.92;75.57;101844.44;4840308;29;20608;-80
2023/04/29 12:00:38;;;;;;;20.67;9.02;;;;;;;13.98;79.37;101839.47;4842516;29;20477;-81
2023/04/29 12:03:13;;;;;;;23.02;9.43;;;;;;;14.01;76.45;101843.78;4842465;29;20030;-81
2023/04/29 12:05:38;;;;;;;23.88;9.73;;;;;;;14.00;74.31;101850.19;4836160;29;20036;-81
2023/04/29 12:08:06;;;;;;;21.45;8.95;;;;;;;13.94;74.67;101848.78;4842707;29;20030;-81
2023/04/29 12:10:35;;;;;;;19.95;8.75;;;;;;;13.92;77.36;101844.44;4843899;29;20497;-80
2023/04/29 12:13:00;;;;;;;21.20;8.35;;;;;;;13.93;79.91;101844.34;4843906;29;20034;-80
2023/04/29 12:15:28;;;;;;;23.92;10.18;;;;;;;13.91;76.54;101842.72;4842312;29;20045;-81
2023/04/29 12:17:53;;;;;;;18.98;8.02;;;;;;;13.89;76.17;101850.94;4842241;29;20493;-81
2023/04/29 12:20:19;;;;;;;20.17;8.52;;;;;;;13.97;76.72;101845.00;4843806;29;20026;-80
2023/04/29 12:22:45;;;;;;;20.15;8.10;;;;;;;13.95;75.24;101844.22;4843551;29;20112;-81
2023/04/29 12:25:11;;;;;;;19.02;7.60;;;;;;;13.95;72.43;101846.94;4842268;29;20026;-80
2023/04/29 12:27:40;;;;;;;20.27;8.57;;;;;;;13.99;73.95;101843.88;4841944;29;20036;-81
2023/04/29 12:30:10;;;;;;;21.30;7.15;;;;;;;14.05;76.05;101856.09;4842382;29;20034;-80
2023/04/29 12:32:35;;;;;;;21.00;8.23;;;;;;;14.10;75.02;101850.34;4841928;29;20044;-80
2023/04/29 12:35:01;;;;;;;20.98;8.90;;;;;;;14.07;70.18;101847.88;4843392;29;20034;-80
2023/04/29 12:37:26;;;;;;;18.70;7.75;;;;;;;14.16;73.45;101848.09;4843342;29;20036;-80
2023/04/29 12:39:54;;;;;;;20.58;8.90;;;;;;;14.27;73.52;101849.13;4843437;29;20489;-80
2023/04/29 12:42:19;;;;;;;21.17;8.50;;;;;;;14.36;71.07;101845.75;4843268;29;20044;-80
2023/04/29 12:44:46;;;;;;;19.70;7.57;;;;;;;14.39;70.96;101848.22;4841936;29;20030;-80
2023/04/29 12:47:12;;;;;;;20.73;7.75;;;;;;;14.38;72.05;101854.63;4834080;29;20408;-80
2023/04/29 12:49:45;;;;;;;19.60;6.93;;;;;;;14.30;70.74;101852.47;4842973;29;20038;-80
2023/04/29 12:52:11;;;;;;;16.85;6.70;;;;;;;14.26;68.10;101848.28;4841790;29;20411;-80
2023/04/29 12:54:43;;;;;;;17.88;6.88;;;;;;;14.22;70.63;101857.59;4843270;29;20053;-80
2023/04/29 12:57:10;;;;;;;19.85;7.22;;;;;;;14.21;69.92;101855.84;4842708;29;20060;-80
2023/04/29 12:59:35;;;;;;;22.77;7.47;;;;;;;14.24;71.40;101858.34;4841575;29;20377;-80
2023/04/29 13:02:00;;;;;;;18.88;7.05;;;;;;;14.26;71.63;101858.22;4841156;29;20058;-81
2023/04/29 13:04:26;;;;;;;19.60;8.02;;;;;;;14.30;71.43;101855.16;4842904;29;20101;-80
2023/04/29 13:06:58;;;;;;;19.13;7.38;;;;;;;14.30;69.62;101857.88;4841583;29;20140;-80
2023/04/29 13:09:24;;;;;;;17.98;7.00;;;;;;;14.37;69.93;101855.59;4841477;29;20034;-80
2023/04/29 13:11:49;;;;;;;19.40;6.60;;;;;;;14.41;71.98;101851.69;4841301;29;20099;-80
2023/04/29 13:14:15;;;;;;;16.80;6.47;;;;;;;14.43;71.80;101846.19;4842616;29;20033;-80
2023/04/29 13:16:40;;;;;;;20.00;7.32;;;;;;;14.47;72.25;101853.09;4834866;29;20040;-80
2023/04/29 13:19:06;;;;;;;17.98;6.40;;;;;;;14.42;68.42;101848.03;4842734;29;20053;-80
2023/04/29 13:21:31;;;;;;;18.80;7.47;;;;;;;14.44;70.56;101850.63;4841282;29;20076;-80
2023/04/29 13:23:56;;;;;;;18.48;6.63;;;;;;;14.51;70.42;101846.50;4842720;29;20060;-80
2023/04/29 13:26:23;;;;;;;18.42;6.95;;;;;;;14.60;69.39;101848.50;4841125;29;20442;-80
2023/04/29 13:28:49;;;;;;;16.67;5.97;;;;;;;14.70;69.49;101848.72;4840929;29;20106;-80
2023/04/29 13:31:15;;;;;;;17.92;6.38;;;;;;;14.74;66.76;101857.47;4842367;29;20040;-79
2023/04/29 13:33:40;;;;;;;17.70;6.18;;;;;;;14.78;68.30;101850.84;4842497;29;20530;-80
2023/04/29 13:36:06;;;;;;;15.43;5.95;;;;;;;14.77;67.40;101857.22;4841335;29;20034;-80
2023/04/29 13:38:32;;;;;;;19.42;7.15;;;;;;;14.73;66.54;101859.31;4842498;29;20034;-80
2023/04/29 13:40:57;;;;;;;19.25;6.72;;;;;;;14.71;68.46;101853.13;4840832;29;20041;-80
2023/04/29 13:43:23;;;;;;;17.02;6.68;;;;;;;14.71;68.46;101852.28;4840646;29;20030;-81
2023/04/29 13:45:48;;;;;;;17.88;6.38;;;;;;;14.71;68.46;101854.97;4840823;29;20033;-80
2023/04/29 13:48:13;;;;;;;15.45;6.13;;;;;;;14.64;66.19;101847.31;4840538;29;20113;-80
2023/04/29 13:50:40;;;;;;;17.35;6.05;;;;;;;14.64;66.81;101855.44;4840781;29;20128;-80
2023/04/29 13:53:06;;;;;;;17.95;6.63;;;;;;;14.60;67.83;101863.88;4840598;29;20033;-80
2023/04/29 13:55:33;;;;;;;18.80;6.97;;;;;;;14.61;68.73;101860.16;4840719;29;20490;-80
2023/04/29 13:57:58;;;;;;;22.52;6.78;;;;;;;14.57;65.68;101866.78;4855734;29;20022;-80
2023/04/29 14:00:24;;;;;;;18.75;6.28;;;;;;;14.58;68.18;101866.66;4840400;29;20097;-80
2023/04/29 14:02:49;;;;;;;17.65;6.78;;;;;;;14.61;68.57;101865.59;4840344;29;20118;-80
2023/04/29 14:05:15;;;;;;;16.80;6.07;;;;;;;14.62;66.30;101870.06;4841701;29;20045;-80
2023/04/29 14:07:40;;;;;;;17.60;6.10;;;;;;;14.64;65.17;101866.28;4840429;29;20499;-80
2023/04/29 14:10:06;;;;;;;16.77;6.53;;;;;;;14.65;65.53;101876.09;4841766;29;20431;-80
2023/04/29 14:12:31;;;;;;;18.45;6.38;;;;;;;14.65;65.34;101876.09;4840393;29;20040;-80
2023/04/29 14:14:56;;;;;;;18.42;6.43;;;;;;;14.65;65.22;101870.69;4840394;29;20478;-80
2023/04/29 14:17:21;;;;;;;18.90;6.80;;;;;;;14.71;65.52;101879.34;4840195;29;20094;-80
2023/04/29 14:19:47;;;;;;;18.35;6.57;;;;;;;14.72;65.08;101868.41;4840338;29;20041;-79
2023/04/29 14:22:12;;;;;;;16.98;6.65;;;;;;;14.79;66.64;101874.22;4841262;29;20026;-80
2023/04/29 14:24:38;;;;;;;17.25;6.30;;;;;;;14.84;66.99;101874.72;4840089;29;20021;-80
2023/04/29 14:27:03;;;;;;;18.58;6.88;;;;;;;14.79;63.60;101876.94;4839937;29;20116;-80
2023/04/29 14:29:29;;;;;;;17.75;6.70;;;;;;;14.76;65.01;101878.00;4841306;29;20118;-80
2023/04/29 14:31:54;;;;;;;18.02;6.82;;;;;;;14.73;67.79;101875.53;4839569;29;20116;-80
2023/04/29 14:34:20;;;;;;;19.25;6.15;;;;;;;14.72;66.23;101872.94;4841354;29;20038;-80
2023/04/29 14:36:47;;;;;;;19.25;6.78;;;;;;;14.75;66.91;101875.44;4841315;29;20033;-80
2023/04/29 14:39:13;;;;;;;15.30;5.82;;;;;;;14.75;65.00;101886.25;4839893;29;20434;-80
2023/04/29 14:41:38;;;;;;;17.70;6.07;;;;;;;14.81;67.41;101881.22;4841096;29;20139;-79
2023/04/29 14:44:04;;;;;;;16.88;5.72;;;;;;;14.86;65.77;101880.88;4841106;29;20109;-80
2023/04/29 14:46:32;;;;;;;18.00;6.30;;;;;;;14.91;64.64;101884.13;4841113;29;20038;-80
2023/04/29 14:48:57;;;;;;;17.15;6.25;;;;;;;14.98;66.71;101879.97;4840974;29;20069;-79
2023/04/29 14:51:23;;;;;;;18.50;5.72;;;;;;;14.98;64.03;101882.69;4841048;29;20066;-80
2023/04/29 14:53:49;;;;;;;17.52;5.53;;;;;;;15.07;64.72;101880.25;4841520;29;20146;-80
2023/04/29 14:56:17;;;;;;;17.25;6.15;;;;;;;15.10;62.68;101880.03;4840710;29;20038;-79
2023/04/29 14:58:42;;;;;;;16.10;5.85;;;;;;;15.11;62.48;101879.03;4840911;29;20034;-80
2023/04/29 15:01:08;;;;;;;16.30;5.60;;;;;;;15.10;61.50;101885.44;4839130;29;20473;-80
2023/04/29 15:03:33;;;;;;;12.82;5.25;;;;;;;15.12;61.95;101883.47;4839459;29;20037;-80
2023/04/29 15:06:02;;;;;;;17.30;5.95;;;;;;;15.07;60.80;101881.13;4840760;29;20041;-80
2023/04/29 15:08:28;;;;;;;16.27;5.43;;;;;;;15.08;62.64;101877.44;4840682;29;20037;-80
2023/04/29 15:10:53;;;;;;;16.67;5.90;;;;;;;15.07;60.10;101881.13;4839559;29;20036;-80
2023/04/29 15:13:19;;;;;;;15.75;5.50;;;;;;;15.06;61.81;101887.50;4840437;29;20040;-80
2023/04/29 15:15:44;;;;;;;15.27;5.53;;;;;;;15.13;63.21;101887.91;4840641;29;20547;-80
2023/04/29 15:18:09;;;;;;;14.10;5.47;;;;;;;15.14;60.52;101881.50;4839238;29;20053;-79
2023/04/29 15:20:35;;;;;;;15.60;5.82;;;;;;;15.17;60.45;101886.69;4840437;29;20103;-80
2023/04/29 15:23:02;;;;;;;16.85;5.75;;;;;;;15.20;65.02;101892.72;4840484;29;20038;-80
2023/04/29 15:25:28;;;;;;;16.17;6.13;;;;;;;15.18;63.23;101889.28;4838970;29;20021;-79
2023/04/29 15:27:53;;;;;;;16.98;5.40;;;;;;;15.25;61.21;101894.22;4840363;29;20041;-80
2023/04/29 15:30:19;;;;;;;18.67;5.82;;;;;;;15.32;61.77;101885.50;4840456;29;20057;-80
2023/04/29 15:32:44;;;;;;;14.45;5.40;;;;;;;15.34;61.92;101888.97;4839496;29;20065;-80
2023/04/29 15:35:11;;;;;;;16.25;5.90;;;;;;;15.30;58.96;101882.06;4840317;29;20029;-81
2023/04/29 15:37:36;;;;;;;16.20;5.80;;;;;;;15.20;58.42;101889.19;4839013;29;20441;-80
2023/04/29 15:40:03;;;;;;;15.95;5.65;;;;;;;15.12;61.37;101894.31;4840242;29;20053;-80
2023/04/29 15:42:29;;;;;;;17.77;5.57;;;;;;;15.03;63.83;101885.03;4838787;29;20379;-80
2023/04/29 15:44:54;;;;;;;15.77;5.90;;;;;;;14.93;65.58;101890.25;4838851;29;20040;-80
2023/04/29 15:47:21;;;;;;;18.58;6.60;;;;;;;14.84;69.13;101888.25;4840192;29;20478;-79
2023/04/29 15:49:46;;;;;;;16.67;6.10;;;;;;;14.78;68.15;101896.84;4840333;29;20065;-80
2023/04/29 15:52:12;;;;;;;18.48;6.30;;;;;;;14.68;67.27;101894.84;4838644;29;20490;-80
2023/04/29 15:54:37;;;;;;;19.80;6.97;;;;;;;14.59;69.02;101887.34;4840195;29;20082;-80
2023/04/29 15:57:03;;;;;;;16.50;5.63;;;;;;;14.52;67.74;101891.47;4839883;29;20462;-80
2023/04/29 15:59:29;;;;;;;15.27;5.80;;;;;;;14.45;69.84;101898.31;4840172;29;20025;-80
2023/04/29 16:01:54;;;;;;;18.20;6.20;;;;;;;14.39;65.47;101898.75;4839860;29;20073;-80
2023/04/29 16:04:20;;;;;;;15.75;5.15;;;;;;;14.39;68.83;101891.50;4840162;29;20033;-80
2023/04/29 16:06:45;;;;;;;14.50;5.05;;;;;;;14.36;71.70;101896.28;4838799;29;20038;-80
2023/04/29 16:09:10;;;;;;;16.42;6.18;;;;;;;14.33;71.65;101892.84;4839902;29;20034;-80
2023/04/29 16:11:36;;;;;;;16.10;6.00;;;;;;;14.32;70.18;101898.38;4839907;29;20062;-80
2023/04/29 16:14:01;;;;;;;19.35;6.15;;;;;;;14.32;72.47;101896.50;4838815;29;20089;-80
2023/04/29 16:16:27;;;;;;;18.20;5.82;;;;;;;14.31;70.07;101900.19;4839881;29;20033;-80
2023/04/29 16:18:52;;;;;;;17.00;5.90;;;;;;;14.34;70.79;101899.09;4838541;29;20066;-80
2023/04/29 16:21:18;;;;;;;16.63;5.80;;;;;;;14.31;72.25;101908.28;4838570;29;20026;-80
2023/04/29 16:23:43;;;;;;;18.08;6.47;;;;;;;14.28;72.55;101905.81;4839842;29;20038;-80
2023/04/29 16:26:09;;;;;;;17.95;5.68;;;;;;;14.21;73.82;101909.94;4840077;29;20037;-80
2023/04/29 16:28:34;;;;;;;18.92;6.50;;;;;;;14.15;74.61;101907.69;4838301;29;20038;-80
2023/04/29 16:31:00;;;;;;;18.50;6.82;;;;;;;14.06;75.63;101903.78;4840027;29;20094;-80
2023/04/29 16:33:25;;;;;;;16.45;6.00;;;;;;;13.98;80.17;101903.47;4839828;29;20033;-80
2023/04/29 16:35:52;;;;;;;17.65;6.22;;;;;;;13.89;76.25;101898.72;4839875;29;20057;-80
2023/04/29 16:38:17;;;;;;;16.02;5.95;;;;;;;13.77;77.63;101900.44;4839731;29;20033;-80
2023/04/29 16:40:43;;;;;;;19.10;6.65;;;;;;;13.75;81.28;101900.56;4838496;29;20041;-80
2023/04/29 16:43:08;;;;;;;21.90;6.43;;;;;;;13.66;76.42;101908.44;4838375;29;20121;-79
2023/04/29 16:45:33;;;;;;;19.25;6.07;;;;;;;13.59;78.77;101900.75;4843431;29;20452;-80
2023/04/29 16:47:59;;;;;;;15.68;5.82;;;;;;;13.56;80.28;101903.69;4842889;29;20037;-80
2023/04/29 16:50:26;;;;;;;17.30;6.85;;;;;;;13.52;79.91;101899.44;4841926;29;20045;-80
2023/04/29 16:52:51;;;;;;;16.75;5.88;;;;;;;13.52;82.00;101907.56;4841655;29;20506;-79
2023/04/29 16:55:17;;;;;;;16.75;5.82;;;;;;;13.53;85.40;101900.31;4843036;29;20034;-79
2023/04/29 16:57:42;;;;;;;15.27;5.70;;;;;;;13.53;83.42;101898.50;4841557;29;20105;-80
2023/04/29 17:00:09;;;;;;;18.00;6.80;;;;;;;13.55;85.48;101901.94;4843010;29;20044;-79
2023/04/29 17:02:36;;;;;;;16.27;5.97;;;;;;;13.57;84.54;101894.59;4842285;29;20049;-80
2023/04/29 17:05:02;;;;;;;20.40;7.25;;;;;;;13.57;81.29;101900.00;4841638;29;20129;-80
2023/04/29 17:07:27;;;;;;;20.65;8.05;;;;;;;13.61;83.33;101906.06;4842753;29;20163;-79
2023/04/29 17:09:53;;;;;;;22.13;6.95;;;;;;;13.60;83.30;101905.19;4842759;29;20041;-80
2023/04/29 17:12:18;;;;;;;19.25;7.65;;;;;;;13.62;81.66;101902.38;4841511;29;20034;-80
2023/04/29 17:14:44;;;;;;;17.48;6.70;;;;;;;13.64;83.21;101900.44;4842774;29;20117;-80
2023/04/29 17:17:09;;;;;;;20.27;7.13;;;;;;;13.65;79.02;101910.28;4841269;29;20508;-80
2023/04/29 17:19:34;;;;;;;17.33;6.35;;;;;;;13.68;84.00;101901.09;4841360;29;20074;-80
2023/04/29 17:21:59;;;;;;;18.23;6.70;;;;;;;13.64;77.68;101913.94;4841141;29;20117;-79
2023/04/29 17:24:25;;;;;;;16.92;6.63;;;;;;;13.60;83.26;101905.19;4841266;29;20030;-79
2023/04/29 17:26:50;;;;;;;18.55;6.22;;;;;;;13.59;82.70;101906.16;4841039;29;20513;-79
2023/04/29 17:29:16;;;;;;;18.33;7.15;;;;;;;13.54;83.67;101902.91;4842476;29;20368;-80
2023/04/29 17:31:46;;;;;;;19.25;6.70;;;;;;;13.50;80.64;101903.22;4842250;29;20046;-80
2023/04/29 17:34:22;;;;;;;15.93;5.95;;;;;;;13.49;81.83;101907.78;4842616;29;20546;-80
2023/04/29 17:36:51;;;;;;;20.65;6.25;;;;;;;13.44;76.10;101897.28;4840807;29;20375;-77
2023/04/29 17:39:17;;;;;;;18.00;6.32;;;;;;;13.44;83.45;101902.69;4842620;29;20394;-77
2023/04/29 17:41:43;;;;;;;19.13;5.88;;;;;;;13.39;83.24;101910.22;4840771;29;20044;-77
2023/04/29 17:44:08;;;;;;;17.13;5.40;;;;;;;13.38;85.62;101910.31;4842477;29;20034;-78
2023/04/29 17:46:36;;;;;;;18.35;5.78;;;;;;;13.32;84.56;101916.13;4842068;29;20041;-78
2023/04/29 17:49:02;;;;;;;18.20;6.18;;;;;;;13.31;86.03;101912.56;4842540;29;20038;-77
2023/04/29 17:51:28;;;;;;;18.80;6.32;;;;;;;13.27;85.72;101911.03;4840775;29;20036;-77
2023/04/29 17:53:54;;;;;;;18.35;6.60;;;;;;;13.23;82.26;101913.06;4841979;29;20351;-78
2023/04/29 17:56:20;;;;;;;17.25;6.32;;;;;;;13.21;84.73;101915.00;4839782;29;20061;-78
2023/04/29 17:58:46;;;;;;;18.05;6.45;;;;;;;13.21;84.98;101912.31;4840888;29;20481;-77
2023/04/29 18:01:11;;;;;;;17.63;6.82;;;;;;;13.21;86.04;101917.72;4841557;29;20140;-77
2023/04/29 18:03:36;;;;;;;18.88;6.47;;;;;;;13.20;87.63;101921.38;4841804;29;20046;-78
2023/04/29 18:06:02;;;;;;;18.27;6.07;;;;;;;13.18;85.48;101927.88;4841794;29;20443;-78
2023/04/29 18:08:27;;;;;;;17.23;5.50;;;;;;;13.13;82.48;101911.09;4841672;29;20030;-77
2023/04/29 18:10:52;;;;;;;16.88;5.20;;;;;;;13.13;85.34;101919.19;4840560;29;20037;-77
2023/04/29 18:13:17;;;;;;;19.50;6.28;;;;;;;13.07;82.98;101923.16;4841414;29;20112;-77
2023/04/29 18:15:43;;;;;;;14.32;4.78;;;;;;;13.06;80.78;101921.44;4840433;29;20041;-77
2023/04/29 18:18:08;;;;;;;17.52;5.28;;;;;;;13.03;81.85;101921.63;4840191;29;20022;-78
2023/04/29 18:20:34;;;;;;;15.55;5.50;;;;;;;13.03;79.77;101918.94;4840140;29;20543;-77
2023/04/29 18:22:59;;;;;;;15.75;5.35;;;;;;;13.01;84.45;101923.59;4841600;29;20351;-77
2023/04/29 18:25:25;;;;;;;15.10;5.22;;;;;;;12.98;87.09;101924.66;4841487;29;20026;-77
2023/04/29 18:27:50;;;;;;;18.80;6.53;;;;;;;12.98;80.74;101924.66;4841230;29;20112;-77
2023/04/29 18:30:15;;;;;;;17.08;5.65;;;;;;;12.98;83.72;101924.66;4841536;29;20522;-78
2023/04/29 18:32:41;;;;;;;18.75;6.05;;;;;;;12.98;80.49;101924.66;4840758;29;20057;-78
2023/04/29 18:35:06;;;;;;;21.45;6.70;;;;;;;12.96;83.40;101923.00;4841265;29;20030;-77
2023/04/29 18:37:32;;;;;;;20.95;6.68;;;;;;;12.93;79.67;101927.66;4841423;29;20370;-77
2023/04/29 18:39:57;;;;;;;18.65;6.55;;;;;;;12.92;79.25;101928.59;4839834;29;20058;-77
2023/04/29 18:42:22;;;;;;;17.73;6.63;;;;;;;12.92;76.93;101925.91;4841264;29;20576;-77
2023/04/29 18:44:50;;;;;;;18.13;6.93;;;;;;;12.92;77.15;101930.47;4841235;29;20042;-77
2023/04/29 18:47:15;;;;;;;18.70;6.90;;;;;;;12.90;77.71;101930.56;4839935;29;20087;-77
2023/04/29 18:49:41;;;;;;;19.17;6.30;;;;;;;12.89;82.61;101926.13;4840979;29;20249;-77
2023/04/29 18:52:06;;;;;;;16.65;5.90;;;;;;;12.86;77.85;101931.72;4840990;29;20494;-77
2023/04/29 18:54:32;;;;;;;17.63;6.18;;;;;;;12.83;81.26;101934.63;4839736;29;20120;-77
2023/04/29 18:56:57;;;;;;;17.30;6.32;;;;;;;12.80;77.28;101936.63;4839412;29;20402;-77
2023/04/29 18:59:23;;;;;;;18.05;6.80;;;;;;;12.77;77.30;101943.97;4841083;29;20029;-77
2023/04/29 19:01:48;;;;;;;19.75;6.40;;;;;;;12.73;78.35;101945.13;4839149;29;20455;-77
2023/04/29 19:04:14;;;;;;;21.13;7.13;;;;;;;12.71;74.47;101948.94;4839447;29;20120;-77
2023/04/29 19:06:40;;;;;;;19.98;7.80;;;;;;;12.68;74.68;101952.69;4840819;29;20038;-78
2023/04/29 19:09:05;;;;;;;16.95;6.70;;;;;;;12.67;74.56;101955.47;4839299;29;20026;-77
2023/04/29 19:11:31;;;;;;;18.40;7.15;;;;;;;12.65;75.43;101960.09;4839206;29;20058;-77
2023/04/29 19:13:59;;;;;;;19.10;7.28;;;;;;;12.62;75.40;101969.25;4840764;29;20121;-77
2023/04/29 19:16:25;;;;;;;18.77;6.63;;;;;;;12.58;76.90;101975.81;4840608;29;20038;-77
2023/04/29 19:18:50;;;;;;;17.67;6.43;;;;;;;12.54;75.00;101977.81;4839277;29;20022;-77
2023/04/29 19:21:17;;;;;;;20.10;7.03;;;;;;;12.51;77.88;101985.25;4840661;29;20640;-77
2023/04/29 19:23:43;;;;;;;19.10;7.03;;;;;;;12.46;76.18;101990.94;4840491;29;20037;-77
2023/04/29 19:26:08;;;;;;;15.95;5.72;;;;;;;12.42;74.84;101994.78;4840614;29;20029;-77
2023/04/29 19:28:34;;;;;;;18.10;6.10;;;;;;;12.37;76.92;101994.19;4840365;29;20045;-77
2023/04/29 19:31:00;;;;;;;17.85;5.50;;;;;;;12.35;74.73;102009.63;4840542;29;20167;-77
2023/04/29 19:33:25;;;;;;;13.70;4.95;;;;;;;12.31;72.40;102005.38;4839774;29;20030;-78
2023/04/29 19:35:51;;;;;;;15.35;5.30;;;;;;;12.24;70.52;102011.16;4840412;29;20053;-78
2023/04/29 19:38:16;;;;;;;11.65;3.90;;;;;;;12.20;68.07;102012.28;4840586;29;20040;-77
2023/04/29 19:40:41;;;;;;;17.23;3.95;;;;;;;12.14;66.81;102014.47;4840491;29;20064;-76
2023/04/29 19:43:07;;;;;;;14.13;4.35;;;;;;;12.08;68.07;102010.38;4840229;29;20032;-78
2023/04/29 19:45:32;;;;;;;11.38;3.85;;;;;;;12.04;68.16;102019.59;4840495;29;20363;-77
2023/04/29 19:48:00;;;;;;;17.58;4.72;;;;;;;11.98;67.37;102014.56;4838680;29;20030;-78
2023/04/29 19:50:27;;;;;;;11.88;3.67;;;;;;;11.92;69.16;102012.19;4839030;29;20049;-77
2023/04/29 19:52:52;;;;;;;10.90;3.80;;;;;;;11.88;69.03;102019.63;4838803;29;20436;-77
2023/04/29 19:55:17;;;;;;;12.23;3.65;;;;;;;11.82;66.74;102015.47;4840220;29;20038;-77
2023/04/29 19:57:43;;;;;;;14.13;3.97;;;;;;;11.76;67.99;102015.84;4840063;29;20072;-77
2023/04/29 20:00:10;;;;;;;15.57;4.03;;;;;;;11.71;67.49;102024.19;4838847;29;20041;-77
2023/04/29 20:02:38;;;;;;;13.45;3.72;;;;;;;11.70;66.61;102029.66;4838502;29;20057;-77
2023/04/29 20:05:04;;;;;;;11.70;3.80;;;;;;;11.62;64.92;102024.72;4838765;29;20487;-77
2023/04/29 20:07:29;;;;;;;12.38;4.07;;;;;;;11.59;65.25;102029.44;4838933;29;20030;-77
2023/04/29 20:09:55;;;;;;;10.38;3.53;;;;;;;11.52;65.98;102024.41;4838792;29;20386;-79
2023/04/29 20:12:20;;;;;;;13.07;4.05;;;;;;;11.47;65.67;102026.47;4839961;29;20026;-79